AirNav   Textron
 
 892 users online  

44GA S&S Flying Service Airport
Pineview, Georgia, USA

GOING TO PINEVIEW?


FAA INFORMATION EFFECTIVE 20 JULY 2017

Location

FAA Identifier: 44GA
Lat/Long: 32-06-15.6150N / 083-28-58.6060W
32-06.260250N / 083-28.976767W
32.1043375 / -83.4829461
(estimated)
Elevation: 260 ft. / 79 m (estimated)
Variation: 02W (1986)
From city: 1 mile E of PINEVIEW, GA
Time zone: UTC -4 (UTC -5 during Standard Time)
Zip code: 31071

Airport Operations

Airport use: Private use. Permission required prior to landing
Activation date: 03/1986
Control tower: no
ARTCC: JACKSONVILLE CENTER
FSS: MACON FLIGHT SERVICE STATION
Attendance: MON-SAT 0800-1700
Wind indicator: yes
Segmented circle: no

Airport Communications

WX AWOS-3PT at CKF (16 nm SW): 119.325 (229-276-2669)
WX AWOS-3 at EZM (19 nm E): 119.425 (478-374-9979)

Nearby radio navigation aids

VOR radial/distance  VOR name  Freq  Var
VNAr173/6.6VIENNA VORTAC116.5001E
MCNr166/36.2MACON VORTAC114.2001E

 
NDB name  Hdg/Dist  Freq  Var  ID
EASTMAN268/16.836604WEZM . --.. --
CONEY078/20.340006WOHY --- .... -.--
MC RAE274/30.528003WMQW -- --.- .--
MONTEZUMA125/30.942604WIZS .. --.. ...
FITZGERALD347/31.136205WSUR ... ..- .-.
LINDBERGH102/32.024204WLKG .-.. -.- --.

Airport Services

Runway Information

Runway 18/36

Dimensions: 3000 x 100 ft. / 914 x 30 m
Surface: turf
RUNWAY 18  RUNWAY 36
Traffic pattern: leftleft
Obstructions: 35 ft. trees, 10 ft. from runway35 ft. pline, 1 ft. from runway

Airport Ownership and Management from official FAA records

Ownership: Privately-owned
Owner: J.D. SCARBOROUGH
PO BOX 28
PINEVIEW, GA 31071
Phone 912-624-2703
Manager: J.D. SCARBOROUGH
PO BOX 28
PINEVIEW, GA 31071
Phone 912-624-2703

Airport Operational Statistics

Aircraft based on the field: 2
Single engine airplanes: 2
    

Instrument Procedures

There are no published instrument procedures at 44GA.

Some nearby airports with instrument procedures:

KCKF - Crisp County-Cordele Airport (16 nm SW)
KEZM - Heart of Georgia Regional Airport (19 nm E)
48A - Cochran Airport (21 nm NE)
KFZG - Fitzgerald Municipal Airport (27 nm SE)
KPXE - Perry-Houston County Airport (28 nm NW)
 
Loc | Ops | Rwys | IFR | FBO | Links
Com | Nav | Svcs | Stats | Notes


 
Area around 44GA (S&S Flying Service Airport)
 
Road maps at: MapQuest Bing Google
 
Aerial photo
No photo
 
Sectional chart

 
Airport distance calculator
Flying to S&S Flying Service Airport? Find the distance to fly.

From to 44GA

Sunrise and sunset
Times for 23-Jul-2017
 Local
(UTC-4)
 Zulu
(UTC)
Morning civil twilight06:1710:17
Sunrise06:4410:44
Sunset20:3700:37
Evening civil twilight21:0401:04

Current date and time
Zulu (UTC)  23-Jul-2017 14:06:36
Local (UTC-4)  23-Jul-2017 10:06:36
 
METAR
KCKF 
16nm SW 
231355Z AUTO 26006KT 10SM SCT011 30/25 A3001 RMK AO2 T03030251
KEZM 
19nm E 
231355Z AUTO 26006KT 10SM CLR 29/20 A3002 RMK AO2 T02910201
KFZG 
27nm SE 
231355Z AUTO 25005KT 10SM BKN013 OVC022 28/25 A3004 RMK AO2 T02840254
KPXE 
28nm NW 
231355Z AUTO 27005KT 10SM CLR 28/24 A3000 RMK AO2 T02780238
KWRB 
31nm N 
231358Z AUTO 19004KT 10SM CLR 27/24 A2998 RMK AO2 SLP152 T02730239
TAF
KWRB 
31nm N 
231218Z 2312/2411 VRB06KT 9999 -SHRA BKN040 BKN250 QNH2999INS TEMPO 2312/2313 4800 -TSRA BKN030CB BECMG 2313/2314 24009KT 9999 NSW SCT045 SCT200 QNH2989INS TEMPO 2319/2323 23015G25KT 6000 -TSRA BKN040CB OVC200 BECMG 2402/2403 23006KT 9999 FEW250 QNH2993INS TX34/2319Z TN25/2312Z
KMCN 
36nm N 
231128Z 2312/2412 23004KT P6SM VCSH SCT040 SCT250 FM231400 23004KT P6SM SCT035 FM231700 24008KT P6SM VCSH BKN040 TEMPO 2320/2324 3SM TSRA BKN035CB FM240200 24005KT P6SM SCT035 BKN050 FM240600 24005KT P6SM SCT250
NOTAMs
Click for the latest NOTAMs
NOTAMs are issued by the DoD/FAA and will open in a separate window not controlled by AirNav.

 

 
 

Would you like to see your business listed on this page?

 If your business provides an interesting product or service to pilots, flight crews, aircraft, or users of the S&S Flying Service Airport, you should consider listing it here.  To start the listing process, click on the button below
 
Add a business
 

Other Pages about S&S Flying Service Airport

Update a link
 
Copyright © AirNav, LLC. All rights reserved. Privacy Policy  Contact